EZY764 EGPH-EGKK
Flight info
| Callsign | EZY764 |
|---|---|
| Flight time | 1h 4m |
| Altitude | 33000 |
| Route | GOSAM P600 FENIK L612 NAVSO DCT ADZOP DCT EGTOC DCT KEPAD L151 DISIT |
| Aircraft | A320/M-SDE3FGHIRWY/LB1 |
Departure
| Time | 2026-05-06 19:19 |
|---|---|
| Airport | Edinburgh Airport (EGPH) |
Arrival
| Time | 2026-05-06 20:23 |
|---|---|
| Airport | London Gatwick Airport (EGKK) |
| Time | Latitude | Longitude | Altitude | Speed | Heading |
|---|---|---|---|---|---|
| 2026-05-06 18:59 | 55.94768 | -3.35552 | 112 ft | 0 kts | 208° |
| 2026-05-06 19:10 | 55.94768 | -3.35551 | 116 ft | 1 kts | 208° |
| 2026-05-06 19:10 | 55.94786 | -3.35534 | 113 ft | 2 kts | 208° |
| 2026-05-06 19:11 | 55.94806 | -3.35509 | 113 ft | 4 kts | 237° |
| 2026-05-06 19:11 | 55.94811 | -3.35469 | 113 ft | 4 kts | 289° |
| 2026-05-06 19:11 | 55.94807 | -3.35451 | 114 ft | 0 kts | 298° |
| 2026-05-06 19:13 | 55.94829 | -3.35522 | 113 ft | 15 kts | 297° |
| 2026-05-06 19:14 | 55.94880 | -3.35690 | 115 ft | 15 kts | 300° |
| 2026-05-06 19:14 | 55.94934 | -3.35848 | 115 ft | 14 kts | 315° |
| 2026-05-06 19:14 | 55.95009 | -3.35842 | 115 ft | 9 kts | 19° |
| 2026-05-06 19:14 | 55.95060 | -3.35889 | 115 ft | 12 kts | 300° |
| 2026-05-06 19:15 | 55.95098 | -3.36025 | 116 ft | 12 kts | 290° |
| 2026-05-06 19:15 | 55.95133 | -3.36212 | 114 ft | 16 kts | 288° |
| 2026-05-06 19:15 | 55.95098 | -3.36387 | 114 ft | 15 kts | 238° |
| 2026-05-06 19:15 | 55.95048 | -3.36537 | 114 ft | 14 kts | 239° |
| 2026-05-06 19:16 | 55.95001 | -3.36676 | 115 ft | 13 kts | 239° |
| 2026-05-06 19:16 | 55.94958 | -3.36802 | 114 ft | 11 kts | 238° |
| 2026-05-06 19:16 | 55.94919 | -3.36917 | 114 ft | 10 kts | 239° |
| 2026-05-06 19:16 | 55.94878 | -3.37038 | 115 ft | 19 kts | 239° |
| 2026-05-06 19:17 | 55.94785 | -3.37311 | 114 ft | 27 kts | 238° |
| 2026-05-06 19:17 | 55.94693 | -3.37584 | 115 ft | 21 kts | 239° |
| 2026-05-06 19:17 | 55.94615 | -3.37814 | 116 ft | 19 kts | 238° |
| 2026-05-06 19:17 | 55.94593 | -3.37950 | 116 ft | 8 kts | 320° |
| 2026-05-06 19:18 | 55.94641 | -3.38005 | 115 ft | 10 kts | 328° |
| 2026-05-06 19:18 | 55.94722 | -3.38062 | 115 ft | 12 kts | 26° |
| 2026-05-06 19:18 | 55.94788 | -3.37873 | 116 ft | 43 kts | 59° |
| 2026-05-06 19:18 | 55.95090 | -3.36984 | 113 ft | 120 kts | 58° |
| 2026-05-06 19:19 | 55.95622 | -3.35443 | 353 ft | 155 kts | 60° |
| 2026-05-06 19:19 | 55.96261 | -3.33890 | 1164 ft | 157 kts | 45° |
| 2026-05-06 19:19 | 55.97100 | -3.32571 | 1779 ft | 172 kts | 45° |
| 2026-05-06 19:19 | 55.98046 | -3.31043 | 2189 ft | 195 kts | 45° |
| 2026-05-06 19:20 | 55.99110 | -3.29317 | 2579 ft | 218 kts | 43° |
| 2026-05-06 19:20 | 56.00532 | -3.28027 | 2980 ft | 247 kts | 8° |
| 2026-05-06 19:20 | 56.02267 | -3.28579 | 3577 ft | 265 kts | 328° |
| 2026-05-06 19:20 | 56.03524 | -3.30943 | 4497 ft | 266 kts | 292° |
| 2026-05-06 19:21 | 56.03812 | -3.34155 | 5504 ft | 264 kts | 262° |
| 2026-05-06 19:21 | 56.03416 | -3.37345 | 6569 ft | 263 kts | 251° |
| 2026-05-06 19:21 | 56.02798 | -3.40444 | 7556 ft | 265 kts | 249° |
| 2026-05-06 19:21 | 56.02147 | -3.43558 | 8522 ft | 269 kts | 250° |
| 2026-05-06 19:22 | 56.01529 | -3.46730 | 9487 ft | 272 kts | 251° |
| 2026-05-06 19:22 | 56.00954 | -3.49997 | 10294 ft | 282 kts | 253° |
| 2026-05-06 19:22 | 56.00390 | -3.53505 | 10625 ft | 305 kts | 254° |
| 2026-05-06 19:22 | 55.99828 | -3.57258 | 11197 ft | 317 kts | 255° |
| 2026-05-06 19:23 | 55.99275 | -3.61111 | 12006 ft | 322 kts | 255° |
| 2026-05-06 19:23 | 55.98725 | -3.65007 | 12863 ft | 325 kts | 256° |
| 2026-05-06 19:23 | 55.98168 | -3.68945 | 13716 ft | 328 kts | 256° |
| 2026-05-06 19:23 | 55.97612 | -3.72866 | 14453 ft | 331 kts | 256° |
| 2026-05-06 19:24 | 55.97040 | -3.76869 | 15184 ft | 334 kts | 256° |
| 2026-05-06 19:24 | 55.96459 | -3.80904 | 15912 ft | 337 kts | 256° |
| 2026-05-06 19:24 | 55.95869 | -3.84974 | 16624 ft | 340 kts | 256° |
| 2026-05-06 19:24 | 55.95236 | -3.89070 | 17348 ft | 344 kts | 250° |
| 2026-05-06 19:25 | 55.94063 | -3.92811 | 18026 ft | 350 kts | 232° |
| 2026-05-06 19:25 | 55.92198 | -3.95650 | 18653 ft | 359 kts | 212° |
| 2026-05-06 19:25 | 55.89819 | -3.97142 | 19236 ft | 370 kts | 191° |
| 2026-05-06 19:25 | 55.87212 | -3.97043 | 19824 ft | 381 kts | 176° |
| 2026-05-06 19:26 | 55.84563 | -3.96406 | 20415 ft | 385 kts | 176° |
| 2026-05-06 19:26 | 55.81900 | -3.95741 | 21004 ft | 389 kts | 176° |
| 2026-05-06 19:26 | 55.79208 | -3.95061 | 21588 ft | 393 kts | 176° |
| 2026-05-06 19:26 | 55.76482 | -3.94376 | 22165 ft | 397 kts | 176° |
| 2026-05-06 19:27 | 55.73732 | -3.93697 | 22739 ft | 401 kts | 177° |
| 2026-05-06 19:27 | 55.70956 | -3.93020 | 23269 ft | 405 kts | 177° |
| 2026-05-06 19:27 | 55.68141 | -3.92338 | 23751 ft | 410 kts | 177° |
| 2026-05-06 19:27 | 55.65335 | -3.91665 | 24184 ft | 414 kts | 177° |
| 2026-05-06 19:28 | 55.62465 | -3.90975 | 24614 ft | 418 kts | 176° |
| 2026-05-06 19:28 | 55.59571 | -3.90276 | 25027 ft | 422 kts | 176° |
| 2026-05-06 19:28 | 55.56651 | -3.89566 | 25438 ft | 425 kts | 176° |
| 2026-05-06 19:28 | 55.53704 | -3.88849 | 25847 ft | 429 kts | 176° |
| 2026-05-06 19:29 | 55.50727 | -3.88130 | 26241 ft | 432 kts | 176° |
| 2026-05-06 19:29 | 55.47730 | -3.87413 | 26632 ft | 436 kts | 176° |
| 2026-05-06 19:29 | 55.44712 | -3.86695 | 26988 ft | 439 kts | 175° |
| 2026-05-06 19:29 | 55.41666 | -3.85971 | 27350 ft | 443 kts | 175° |
| 2026-05-06 19:30 | 55.38598 | -3.85241 | 27721 ft | 447 kts | 175° |
| 2026-05-06 19:30 | 55.35502 | -3.84501 | 28098 ft | 450 kts | 175° |
| 2026-05-06 19:30 | 55.32425 | -3.83761 | 28461 ft | 453 kts | 175° |
| 2026-05-06 19:30 | 55.29249 | -3.82999 | 28830 ft | 456 kts | 175° |
| 2026-05-06 19:31 | 55.26123 | -3.82256 | 29170 ft | 459 kts | 175° |
| 2026-05-06 19:31 | 55.22954 | -3.81449 | 29511 ft | 463 kts | 172° |
| 2026-05-06 19:31 | 55.16700 | -3.78297 | 30145 ft | 471 kts | 164° |
| 2026-05-06 19:32 | 55.13560 | -3.76570 | 30414 ft | 474 kts | 164° |
| 2026-05-06 19:32 | 55.10408 | -3.74839 | 30670 ft | 476 kts | 164° |
| 2026-05-06 19:32 | 55.07236 | -3.73103 | 30916 ft | 479 kts | 164° |
| 2026-05-06 19:32 | 55.04050 | -3.71364 | 31154 ft | 482 kts | 164° |
| 2026-05-06 19:33 | 55.00836 | -3.69616 | 31329 ft | 486 kts | 164° |
| 2026-05-06 19:33 | 54.97588 | -3.67853 | 31455 ft | 490 kts | 164° |
| 2026-05-06 19:33 | 54.94319 | -3.66083 | 31567 ft | 494 kts | 163° |
| 2026-05-06 19:33 | 54.91029 | -3.64298 | 31697 ft | 496 kts | 163° |
| 2026-05-06 19:34 | 54.87731 | -3.62509 | 31846 ft | 497 kts | 163° |
| 2026-05-06 19:34 | 54.84426 | -3.60713 | 32026 ft | 498 kts | 163° |
| 2026-05-06 19:34 | 54.81116 | -3.58915 | 32217 ft | 498 kts | 163° |
| 2026-05-06 19:34 | 54.77844 | -3.57144 | 32411 ft | 498 kts | 163° |
| 2026-05-06 19:35 | 54.74533 | -3.55361 | 32609 ft | 498 kts | 163° |
| 2026-05-06 19:35 | 54.71222 | -3.53590 | 32807 ft | 498 kts | 163° |
| 2026-05-06 19:35 | 54.67906 | -3.51823 | 32976 ft | 498 kts | 163° |
| 2026-05-06 19:35 | 54.64593 | -3.50061 | 33023 ft | 497 kts | 162° |
| 2026-05-06 19:36 | 54.57977 | -3.46539 | 33028 ft | 497 kts | 162° |
| 2026-05-06 19:36 | 54.51377 | -3.43019 | 33025 ft | 497 kts | 162° |
| 2026-05-06 19:37 | 54.44775 | -3.39517 | 33019 ft | 497 kts | 162° |
| 2026-05-06 19:37 | 54.39295 | -3.36621 | 33026 ft | 494 kts | 162° |
| 2026-05-06 19:38 | 54.31651 | -3.32589 | 33024 ft | 494 kts | 162° |
| 2026-05-06 19:38 | 54.25194 | -3.29197 | 33020 ft | 472 kts | 162° |
| 2026-05-06 19:39 | 54.18965 | -3.26035 | 33011 ft | 464 kts | 167° |
| 2026-05-06 19:39 | 54.12598 | -3.24676 | 33023 ft | 460 kts | 175° |
| 2026-05-06 19:40 | 54.06219 | -3.23689 | 33013 ft | 460 kts | 175° |
| 2026-05-06 19:40 | 53.99876 | -3.22317 | 33021 ft | 460 kts | 165° |
| 2026-05-06 19:41 | 53.93853 | -3.18744 | 33015 ft | 458 kts | 158° |
| 2026-05-06 19:41 | 53.87900 | -3.14890 | 33032 ft | 457 kts | 158° |
| 2026-05-06 19:42 | 53.81958 | -3.11078 | 33044 ft | 456 kts | 159° |
| 2026-05-06 19:42 | 53.76050 | -3.07295 | 33031 ft | 456 kts | 158° |
| 2026-05-06 19:43 | 53.70118 | -3.03491 | 33034 ft | 455 kts | 158° |
| 2026-05-06 19:43 | 53.64198 | -2.99712 | 33032 ft | 454 kts | 159° |
| 2026-05-06 19:44 | 53.59290 | -2.96598 | 33031 ft | 453 kts | 159° |
| 2026-05-06 19:44 | 53.53395 | -2.92880 | 33024 ft | 452 kts | 159° |
| 2026-05-06 19:45 | 53.47503 | -2.89166 | 33018 ft | 452 kts | 159° |
| 2026-05-06 19:45 | 53.41616 | -2.85459 | 33027 ft | 451 kts | 159° |
| 2026-05-06 19:46 | 53.35772 | -2.81785 | 33023 ft | 451 kts | 159° |
| 2026-05-06 19:46 | 53.29894 | -2.78100 | 33018 ft | 451 kts | 159° |
| 2026-05-06 19:47 | 53.24019 | -2.74436 | 33017 ft | 450 kts | 159° |
| 2026-05-06 19:47 | 53.18144 | -2.70782 | 33008 ft | 450 kts | 159° |
| 2026-05-06 19:48 | 53.12271 | -2.67143 | 33010 ft | 449 kts | 159° |
| 2026-05-06 19:48 | 53.06455 | -2.63547 | 33011 ft | 449 kts | 159° |
| 2026-05-06 19:49 | 53.00594 | -2.59923 | 33015 ft | 449 kts | 159° |
| 2026-05-06 19:49 | 52.94765 | -2.56331 | 33028 ft | 448 kts | 159° |
| 2026-05-06 19:50 | 52.88923 | -2.52756 | 33041 ft | 447 kts | 159° |
| 2026-05-06 19:50 | 52.83096 | -2.49195 | 33049 ft | 445 kts | 159° |
| 2026-05-06 19:51 | 52.77698 | -2.44271 | 33043 ft | 444 kts | 146° |
| 2026-05-06 19:51 | 52.72557 | -2.38583 | 33035 ft | 443 kts | 146° |
| 2026-05-06 19:52 | 52.67424 | -2.32943 | 33043 ft | 442 kts | 146° |
| 2026-05-06 19:52 | 52.62334 | -2.27357 | 33039 ft | 442 kts | 146° |
| 2026-05-06 19:53 | 52.57211 | -2.21747 | 33033 ft | 441 kts | 146° |
| 2026-05-06 19:53 | 52.52098 | -2.16171 | 33037 ft | 441 kts | 146° |
| 2026-05-06 19:54 | 52.46971 | -2.10595 | 33033 ft | 441 kts | 147° |
| 2026-05-06 19:54 | 52.41811 | -2.05001 | 32026 ft | 450 kts | 147° |
| 2026-05-06 19:55 | 52.39213 | -2.02186 | 31474 ft | 444 kts | 147° |
| 2026-05-06 19:55 | 52.36641 | -1.99407 | 30749 ft | 442 kts | 147° |
| 2026-05-06 19:55 | 52.34062 | -1.96625 | 29474 ft | 443 kts | 148° |
| 2026-05-06 19:55 | 52.31532 | -1.93892 | 28177 ft | 439 kts | 148° |
| 2026-05-06 19:56 | 52.28967 | -1.91123 | 27010 ft | 432 kts | 148° |
| 2026-05-06 19:56 | 52.26510 | -1.88475 | 25919 ft | 425 kts | 148° |
| 2026-05-06 19:56 | 52.24051 | -1.85832 | 24908 ft | 418 kts | 148° |
| 2026-05-06 19:56 | 52.21635 | -1.83242 | 23913 ft | 412 kts | 148° |
| 2026-05-06 19:57 | 52.19259 | -1.80700 | 22832 ft | 406 kts | 148° |
| 2026-05-06 19:57 | 52.16914 | -1.78194 | 21797 ft | 400 kts | 148° |
| 2026-05-06 19:57 | 52.14605 | -1.75728 | 20951 ft | 391 kts | 148° |
| 2026-05-06 19:57 | 52.12387 | -1.73356 | 20496 ft | 373 kts | 148° |
| 2026-05-06 19:58 | 52.10264 | -1.71088 | 20020 ft | 357 kts | 148° |
| 2026-05-06 19:58 | 52.08192 | -1.68883 | 19719 ft | 360 kts | 148° |
| 2026-05-06 19:58 | 52.06082 | -1.66644 | 19401 ft | 362 kts | 148° |
| 2026-05-06 19:58 | 52.03979 | -1.64415 | 19084 ft | 361 kts | 148° |
| 2026-05-06 19:59 | 52.01873 | -1.62185 | 18755 ft | 360 kts | 148° |
| 2026-05-06 19:59 | 51.99783 | -1.59972 | 18447 ft | 358 kts | 148° |
| 2026-05-06 19:59 | 51.97701 | -1.57768 | 18110 ft | 356 kts | 148° |
| 2026-05-06 19:59 | 51.95634 | -1.55581 | 17785 ft | 355 kts | 148° |
| 2026-05-06 20:00 | 51.93571 | -1.53403 | 17483 ft | 353 kts | 148° |
| 2026-05-06 20:00 | 51.91541 | -1.51260 | 17188 ft | 352 kts | 148° |
| 2026-05-06 20:00 | 51.89492 | -1.49103 | 16875 ft | 351 kts | 148° |
| 2026-05-06 20:00 | 51.87448 | -1.46955 | 16568 ft | 349 kts | 148° |
| 2026-05-06 20:01 | 51.85414 | -1.44818 | 16265 ft | 348 kts | 148° |
| 2026-05-06 20:01 | 51.83390 | -1.42691 | 15959 ft | 346 kts | 148° |
| 2026-05-06 20:01 | 51.81372 | -1.40577 | 15659 ft | 345 kts | 148° |
| 2026-05-06 20:01 | 51.79360 | -1.38474 | 15351 ft | 344 kts | 148° |
| 2026-05-06 20:02 | 51.77358 | -1.36383 | 15058 ft | 342 kts | 148° |
| 2026-05-06 20:02 | 51.75359 | -1.34293 | 14886 ft | 341 kts | 147° |
| 2026-05-06 20:02 | 51.73368 | -1.32209 | 14761 ft | 341 kts | 147° |
| 2026-05-06 20:02 | 51.71376 | -1.30124 | 14616 ft | 341 kts | 147° |
| 2026-05-06 20:03 | 51.69389 | -1.28049 | 14473 ft | 340 kts | 148° |
| 2026-05-06 20:03 | 51.67404 | -1.25979 | 14335 ft | 339 kts | 148° |
| 2026-05-06 20:03 | 51.65452 | -1.23950 | 14198 ft | 339 kts | 147° |
| 2026-05-06 20:03 | 51.63469 | -1.21889 | 14059 ft | 338 kts | 148° |
| 2026-05-06 20:04 | 51.61492 | -1.19841 | 13917 ft | 338 kts | 148° |
| 2026-05-06 20:04 | 51.59517 | -1.17796 | 13775 ft | 337 kts | 148° |
| 2026-05-06 20:04 | 51.57549 | -1.15757 | 13628 ft | 336 kts | 147° |
| 2026-05-06 20:04 | 51.55582 | -1.13721 | 13484 ft | 336 kts | 147° |
| 2026-05-06 20:05 | 51.53622 | -1.11693 | 13354 ft | 335 kts | 147° |
| 2026-05-06 20:05 | 51.51662 | -1.09669 | 13209 ft | 334 kts | 147° |
| 2026-05-06 20:05 | 51.49710 | -1.07657 | 13072 ft | 333 kts | 147° |
| 2026-05-06 20:05 | 51.47762 | -1.05650 | 12932 ft | 332 kts | 147° |
| 2026-05-06 20:06 | 51.45818 | -1.03650 | 12792 ft | 332 kts | 147° |
| 2026-05-06 20:06 | 51.43878 | -1.01659 | 12655 ft | 331 kts | 148° |
| 2026-05-06 20:06 | 51.41944 | -0.99676 | 12519 ft | 330 kts | 147° |
| 2026-05-06 20:06 | 51.40008 | -0.97687 | 12372 ft | 330 kts | 147° |
| 2026-05-06 20:07 | 51.38081 | -0.95706 | 12243 ft | 329 kts | 147° |
| 2026-05-06 20:07 | 51.36150 | -0.93725 | 12100 ft | 329 kts | 148° |
| 2026-05-06 20:07 | 51.34247 | -0.91778 | 11997 ft | 328 kts | 148° |
| 2026-05-06 20:07 | 51.32321 | -0.89812 | 12029 ft | 328 kts | 148° |
| 2026-05-06 20:08 | 51.30395 | -0.87850 | 12031 ft | 328 kts | 148° |
| 2026-05-06 20:08 | 51.28471 | -0.85889 | 12036 ft | 327 kts | 148° |
| 2026-05-06 20:08 | 51.26549 | -0.83932 | 12035 ft | 327 kts | 148° |
| 2026-05-06 20:08 | 51.24628 | -0.81976 | 12035 ft | 327 kts | 148° |
| 2026-05-06 20:09 | 51.22710 | -0.80021 | 12028 ft | 327 kts | 148° |
| 2026-05-06 20:09 | 51.20785 | -0.78065 | 12022 ft | 327 kts | 148° |
| 2026-05-06 20:09 | 51.18864 | -0.76119 | 12032 ft | 327 kts | 148° |
| 2026-05-06 20:09 | 51.16934 | -0.74164 | 11849 ft | 327 kts | 148° |
| 2026-05-06 20:10 | 51.15018 | -0.72226 | 11590 ft | 326 kts | 148° |
| 2026-05-06 20:10 | 51.13112 | -0.70297 | 11336 ft | 324 kts | 148° |
| 2026-05-06 20:10 | 51.11211 | -0.68378 | 11083 ft | 323 kts | 148° |
| 2026-05-06 20:10 | 51.09327 | -0.66473 | 10836 ft | 317 kts | 148° |
| 2026-05-06 20:11 | 51.07512 | -0.64639 | 10587 ft | 309 kts | 147° |
| 2026-05-06 20:11 | 51.05849 | -0.62532 | 10336 ft | 302 kts | 134° |
| 2026-05-06 20:11 | 51.04594 | -0.59906 | 10044 ft | 297 kts | 119° |
| 2026-05-06 20:11 | 51.03667 | -0.56983 | 9728 ft | 295 kts | 115° |
| 2026-05-06 20:12 | 51.02759 | -0.54071 | 9402 ft | 293 kts | 116° |
| 2026-05-06 20:12 | 51.01852 | -0.51179 | 9147 ft | 291 kts | 116° |
| 2026-05-06 20:12 | 51.00950 | -0.48303 | 9022 ft | 291 kts | 116° |
| 2026-05-06 20:12 | 51.00044 | -0.45434 | 8856 ft | 288 kts | 116° |
| 2026-05-06 20:13 | 50.99153 | -0.42643 | 8615 ft | 280 kts | 116° |
| 2026-05-06 20:13 | 50.98290 | -0.39942 | 8349 ft | 266 kts | 116° |
| 2026-05-06 20:13 | 50.97467 | -0.37374 | 8102 ft | 257 kts | 116° |
| 2026-05-06 20:13 | 50.96675 | -0.34870 | 7993 ft | 252 kts | 112° |
| 2026-05-06 20:14 | 50.96371 | -0.32181 | 7992 ft | 249 kts | 82° |
| 2026-05-06 20:14 | 50.96960 | -0.29657 | 8001 ft | 245 kts | 50° |
| 2026-05-06 20:14 | 50.98259 | -0.27993 | 7934 ft | 243 kts | 21° |
| 2026-05-06 20:14 | 50.99874 | -0.27438 | 7583 ft | 241 kts | 4° |
| 2026-05-06 20:15 | 51.01565 | -0.27311 | 7196 ft | 240 kts | 355° |
| 2026-05-06 20:15 | 51.03110 | -0.28148 | 6816 ft | 237 kts | 323° |
| 2026-05-06 20:15 | 51.04136 | -0.30162 | 6418 ft | 237 kts | 292° |
| 2026-05-06 20:15 | 51.04406 | -0.32704 | 6003 ft | 239 kts | 270° |
| 2026-05-06 20:16 | 51.04315 | -0.35345 | 5638 ft | 239 kts | 266° |
| 2026-05-06 20:16 | 51.04170 | -0.37973 | 5273 ft | 238 kts | 266° |
| 2026-05-06 20:16 | 51.04022 | -0.40561 | 4903 ft | 233 kts | 266° |
| 2026-05-06 20:16 | 51.03878 | -0.43112 | 4502 ft | 231 kts | 266° |
| 2026-05-06 20:17 | 51.03736 | -0.45644 | 4098 ft | 230 kts | 266° |
| 2026-05-06 20:17 | 51.03886 | -0.48130 | 3800 ft | 224 kts | 294° |
| 2026-05-06 20:17 | 51.04801 | -0.49957 | 3581 ft | 205 kts | 329° |
| 2026-05-06 20:17 | 51.06093 | -0.50492 | 3449 ft | 186 kts | 7° |
| 2026-05-06 20:18 | 51.07244 | -0.49671 | 3394 ft | 183 kts | 36° |
| 2026-05-06 20:18 | 51.08214 | -0.48366 | 3279 ft | 182 kts | 40° |
| 2026-05-06 20:18 | 51.09137 | -0.47026 | 3172 ft | 182 kts | 41° |
| 2026-05-06 20:18 | 51.10065 | -0.45671 | 3084 ft | 181 kts | 41° |
| 2026-05-06 20:19 | 51.10972 | -0.44287 | 3001 ft | 181 kts | 49° |
| 2026-05-06 20:19 | 51.11546 | -0.42506 | 2944 ft | 184 kts | 73° |
| 2026-05-06 20:19 | 51.11829 | -0.40518 | 2764 ft | 184 kts | 75° |
| 2026-05-06 20:19 | 51.12101 | -0.38545 | 2536 ft | 180 kts | 75° |
| 2026-05-06 20:20 | 51.12367 | -0.36627 | 2289 ft | 172 kts | 75° |
| 2026-05-06 20:20 | 51.12619 | -0.34819 | 2058 ft | 163 kts | 74° |
| 2026-05-06 20:20 | 51.12859 | -0.33100 | 1850 ft | 160 kts | 74° |
| 2026-05-06 20:20 | 51.13103 | -0.31353 | 1630 ft | 159 kts | 74° |
| 2026-05-06 20:21 | 51.13332 | -0.29705 | 1434 ft | 147 kts | 75° |
| 2026-05-06 20:21 | 51.13544 | -0.28182 | 1217 ft | 136 kts | 75° |
| 2026-05-06 20:21 | 51.13745 | -0.26736 | 1026 ft | 132 kts | 75° |
| 2026-05-06 20:21 | 51.13942 | -0.25321 | 840 ft | 130 kts | 76° |
| 2026-05-06 20:22 | 51.14136 | -0.23922 | 668 ft | 129 kts | 76° |
| 2026-05-06 20:22 | 51.14331 | -0.22523 | 484 ft | 129 kts | 77° |
| 2026-05-06 20:22 | 51.14523 | -0.21136 | 290 ft | 128 kts | 77° |
| 2026-05-06 20:22 | 51.14710 | -0.19813 | 210 ft | 110 kts | 77° |
| 2026-05-06 20:23 | 51.14840 | -0.18858 | 206 ft | 63 kts | 78° |
| 2026-05-06 20:23 | 51.14912 | -0.18334 | 207 ft | 41 kts | 77° |
| 2026-05-06 20:23 | 51.14996 | -0.17938 | 211 ft | 31 kts | 58° |
| 2026-05-06 20:23 | 51.15099 | -0.17765 | 206 ft | 15 kts | 8° |
| 2026-05-06 20:24 | 51.15156 | -0.17773 | 210 ft | 5 kts | 355° |
| 2026-05-06 20:24 | 51.15180 | -0.17776 | 205 ft | 0 kts | 355° |
| 2026-05-06 20:24 | 51.15181 | -0.17777 | 205 ft | 0 kts | 355° |
| 2026-05-06 20:24 | 51.15183 | -0.17777 | 205 ft | 0 kts | 355° |
| 2026-05-06 20:25 | 51.15185 | -0.17777 | 205 ft | 0 kts | 355° |
| 2026-05-06 20:25 | 51.15197 | -0.17779 | 205 ft | 7 kts | 355° |
| 2026-05-06 20:25 | 51.15246 | -0.17838 | 207 ft | 10 kts | 274° |
| 2026-05-06 20:25 | 51.15234 | -0.17941 | 209 ft | 9 kts | 257° |
| 2026-05-06 20:26 | 51.15221 | -0.18037 | 205 ft | 8 kts | 257° |
| 2026-05-06 20:26 | 51.15234 | -0.18096 | 210 ft | 10 kts | 332° |
| 2026-05-06 20:26 | 51.15336 | -0.18130 | 208 ft | 16 kts | 347° |
| 2026-05-06 20:26 | 51.15447 | -0.18170 | 205 ft | 17 kts | 347° |
| 2026-05-06 20:27 | 51.15567 | -0.18220 | 205 ft | 19 kts | 345° |
| 2026-05-06 20:27 | 51.15650 | -0.18232 | 205 ft | 10 kts | 19° |
| 2026-05-06 20:27 | 51.15675 | -0.18159 | 205 ft | 8 kts | 79° |
| 2026-05-06 20:27 | 51.15702 | -0.18049 | 209 ft | 14 kts | 27° |
| 2026-05-06 20:28 | 51.15799 | -0.18067 | 209 ft | 14 kts | 348° |
| 2026-05-06 20:28 | 51.15918 | -0.18109 | 205 ft | 21 kts | 347° |
| 2026-05-06 20:28 | 51.16016 | -0.18143 | 211 ft | 8 kts | 348° |
| 2026-05-06 20:28 | 51.16052 | -0.18131 | 210 ft | 6 kts | 64° |
| 2026-05-06 20:29 | 51.16062 | -0.18051 | 205 ft | 7 kts | 78° |
| 2026-05-06 20:29 | 51.16065 | -0.18027 | 211 ft | 0 kts | 77° |